sensor_id;sensor_type;location;lat;lon;timestamp;P1;durP1;ratioP1;P2;durP2;ratioP2
37847;SDS011;23688;33.130;-117.188;2023-08-20T00:02:26;6.75;;;3.58;;
37847;SDS011;23688;33.130;-117.188;2023-08-20T00:04:57;7.15;;;3.08;;
37847;SDS011;23688;33.130;-117.188;2023-08-20T00:07:24;9.43;;;3.33;;
37847;SDS011;23688;33.130;-117.188;2023-08-20T00:09:51;6.72;;;3.38;;
37847;SDS011;23688;33.130;-117.188;2023-08-20T00:12:17;5.28;;;3.55;;
37847;SDS011;23688;33.130;-117.188;2023-08-20T00:14:54;5.97;;;3.55;;
37847;SDS011;23688;33.130;-117.188;2023-08-20T00:17:30;8.57;;;3.45;;
37847;SDS011;23688;33.130;-117.188;2023-08-20T00:19:57;11.00;;;3.93;;
37847;SDS011;23688;33.130;-117.188;2023-08-20T00:22:24;9.45;;;3.65;;
37847;SDS011;23688;33.130;-117.188;2023-08-20T00:24:52;14.23;;;4.40;;
37847;SDS011;23688;33.130;-117.188;2023-08-20T00:27:19;11.25;;;3.42;;
37847;SDS011;23688;33.130;-117.188;2023-08-20T00:29:46;6.78;;;3.45;;
37847;SDS011;23688;33.130;-117.188;2023-08-20T00:32:14;8.55;;;3.80;;
37847;SDS011;23688;33.130;-117.188;2023-08-20T00:34:40;6.43;;;3.10;;
37847;SDS011;23688;33.130;-117.188;2023-08-20T00:37:07;5.72;;;3.15;;
37847;SDS011;23688;33.130;-117.188;2023-08-20T00:39:33;9.60;;;3.90;;
37847;SDS011;23688;33.130;-117.188;2023-08-20T00:41:59;7.72;;;3.38;;
37847;SDS011;23688;33.130;-117.188;2023-08-20T00:44:26;5.32;;;3.25;;
37847;SDS011;23688;33.130;-117.188;2023-08-20T00:46:52;5.72;;;3.10;;
37847;SDS011;23688;33.130;-117.188;2023-08-20T00:49:19;8.05;;;3.38;;
37847;SDS011;23688;33.130;-117.188;2023-08-20T00:51:45;8.55;;;4.00;;
37847;SDS011;23688;33.130;-117.188;2023-08-20T00:54:11;16.13;;;3.70;;
37847;SDS011;23688;33.130;-117.188;2023-08-20T00:56:38;7.53;;;3.60;;
37847;SDS011;23688;33.130;-117.188;2023-08-20T00:59:05;10.13;;;3.60;;
37847;SDS011;23688;33.130;-117.188;2023-08-20T01:01:32;6.28;;;3.25;;
37847;SDS011;23688;33.130;-117.188;2023-08-20T01:03:58;5.85;;;3.10;;
37847;SDS011;23688;33.130;-117.188;2023-08-20T01:09:33;8.73;;;3.55;;
37847;SDS011;23688;33.130;-117.188;2023-08-20T01:12:23;8.98;;;3.53;;
37847;SDS011;23688;33.130;-117.188;2023-08-20T01:14:51;8.20;;;3.72;;
37847;SDS011;23688;33.130;-117.188;2023-08-20T01:17:18;8.43;;;3.40;;
37847;SDS011;23688;33.130;-117.188;2023-08-20T01:19:45;9.50;;;3.67;;
37847;SDS011;23688;33.130;-117.188;2023-08-20T01:23:19;9.18;;;3.95;;
37847;SDS011;23688;33.130;-117.188;2023-08-20T01:28:21;11.05;;;4.10;;
37847;SDS011;23688;33.130;-117.188;2023-08-20T01:30:47;7.38;;;3.00;;
37847;SDS011;23688;33.130;-117.188;2023-08-20T01:33:14;10.13;;;3.20;;
37847;SDS011;23688;33.130;-117.188;2023-08-20T01:35:41;10.48;;;3.45;;
37847;SDS011;23688;33.130;-117.188;2023-08-20T01:38:08;12.70;;;3.90;;
37847;SDS011;23688;33.130;-117.188;2023-08-20T01:40:34;7.40;;;3.42;;
37847;SDS011;23688;33.130;-117.188;2023-08-20T01:43:00;9.82;;;3.83;;
37847;SDS011;23688;33.130;-117.188;2023-08-20T01:45:26;7.70;;;3.38;;
37847;SDS011;23688;33.130;-117.188;2023-08-20T01:47:54;5.82;;;3.20;;
37847;SDS011;23688;33.130;-117.188;2023-08-20T01:50:21;6.28;;;4.20;;
37847;SDS011;23688;33.130;-117.188;2023-08-20T01:52:47;7.70;;;3.67;;
37847;SDS011;23688;33.130;-117.188;2023-08-20T01:55:13;5.40;;;3.72;;
37847;SDS011;23688;33.130;-117.188;2023-08-20T01:57:40;10.18;;;3.90;;
37847;SDS011;23688;33.130;-117.188;2023-08-20T02:00:06;11.50;;;4.20;;
37847;SDS011;23688;33.130;-117.188;2023-08-20T02:02:33;10.15;;;3.55;;
37847;SDS011;23688;33.130;-117.188;2023-08-20T02:05:00;12.73;;;3.83;;
37847;SDS011;23688;33.130;-117.188;2023-08-20T02:07:26;7.05;;;3.63;;
37847;SDS011;23688;33.130;-117.188;2023-08-20T02:09:53;10.07;;;3.72;;
37847;SDS011;23688;33.130;-117.188;2023-08-20T02:12:19;9.38;;;4.05;;
37847;SDS011;23688;33.130;-117.188;2023-08-20T02:14:45;8.82;;;3.97;;
37847;SDS011;23688;33.130;-117.188;2023-08-20T02:17:11;11.63;;;4.05;;
37847;SDS011;23688;33.130;-117.188;2023-08-20T02:19:38;10.88;;;5.07;;
37847;SDS011;23688;33.130;-117.188;2023-08-20T02:22:04;8.98;;;4.07;;
37847;SDS011;23688;33.130;-117.188;2023-08-20T02:24:31;11.15;;;3.60;;
37847;SDS011;23688;33.130;-117.188;2023-08-20T02:26:57;10.30;;;4.47;;
37847;SDS011;23688;33.130;-117.188;2023-08-20T02:29:26;6.68;;;4.25;;
37847;SDS011;23688;33.130;-117.188;2023-08-20T02:31:52;9.55;;;4.32;;
37847;SDS011;23688;33.130;-117.188;2023-08-20T02:34:19;7.50;;;4.03;;
37847;SDS011;23688;33.130;-117.188;2023-08-20T02:36:45;5.25;;;3.97;;
37847;SDS011;23688;33.130;-117.188;2023-08-20T02:39:14;7.50;;;3.90;;
37847;SDS011;23688;33.130;-117.188;2023-08-20T02:41:42;13.27;;;3.67;;
37847;SDS011;23688;33.130;-117.188;2023-08-20T02:44:08;13.23;;;4.40;;
37847;SDS011;23688;33.130;-117.188;2023-08-20T02:46:35;9.25;;;3.80;;
37847;SDS011;23688;33.130;-117.188;2023-08-20T02:49:03;9.45;;;4.13;;
37847;SDS011;23688;33.130;-117.188;2023-08-20T02:51:30;8.57;;;4.30;;
37847;SDS011;23688;33.130;-117.188;2023-08-20T02:53:56;7.55;;;4.22;;
37847;SDS011;23688;33.130;-117.188;2023-08-20T02:56:22;11.60;;;4.03;;
37847;SDS011;23688;33.130;-117.188;2023-08-20T02:58:48;5.63;;;3.45;;
37847;SDS011;23688;33.130;-117.188;2023-08-20T03:01:22;8.93;;;4.00;;
37847;SDS011;23688;33.130;-117.188;2023-08-20T03:03:52;11.65;;;4.30;;
37847;SDS011;23688;33.130;-117.188;2023-08-20T03:06:18;10.30;;;3.72;;
37847;SDS011;23688;33.130;-117.188;2023-08-20T03:08:45;11.75;;;4.30;;
37847;SDS011;23688;33.130;-117.188;2023-08-20T03:11:12;10.00;;;4.60;;
37847;SDS011;23688;33.130;-117.188;2023-08-20T03:13:40;8.27;;;4.25;;
37847;SDS011;23688;33.130;-117.188;2023-08-20T03:16:06;9.68;;;4.00;;
37847;SDS011;23688;33.130;-117.188;2023-08-20T03:18:32;6.97;;;4.18;;
37847;SDS011;23688;33.130;-117.188;2023-08-20T03:20:59;8.52;;;4.35;;
37847;SDS011;23688;33.130;-117.188;2023-08-20T03:23:25;8.73;;;4.45;;
37847;SDS011;23688;33.130;-117.188;2023-08-20T03:25:52;8.18;;;4.10;;
37847;SDS011;23688;33.130;-117.188;2023-08-20T03:28:22;9.77;;;3.67;;
37847;SDS011;23688;33.130;-117.188;2023-08-20T03:30:49;10.73;;;3.83;;
37847;SDS011;23688;33.130;-117.188;2023-08-20T03:33:15;9.13;;;4.07;;
37847;SDS011;23688;33.130;-117.188;2023-08-20T03:35:42;9.48;;;4.85;;
37847;SDS011;23688;33.130;-117.188;2023-08-20T03:38:09;9.43;;;4.43;;
37847;SDS011;23688;33.130;-117.188;2023-08-20T03:40:35;9.07;;;4.25;;
37847;SDS011;23688;33.130;-117.188;2023-08-20T03:43:01;6.05;;;4.25;;
37847;SDS011;23688;33.130;-117.188;2023-08-20T03:45:28;9.07;;;3.85;;
37847;SDS011;23688;33.130;-117.188;2023-08-20T03:47:55;7.93;;;4.03;;
37847;SDS011;23688;33.130;-117.188;2023-08-20T03:50:22;8.90;;;4.28;;
37847;SDS011;23688;33.130;-117.188;2023-08-20T03:52:48;6.97;;;3.90;;
37847;SDS011;23688;33.130;-117.188;2023-08-20T03:55:14;10.10;;;4.32;;
37847;SDS011;23688;33.130;-117.188;2023-08-20T03:57:41;7.22;;;4.43;;
37847;SDS011;23688;33.130;-117.188;2023-08-20T04:00:08;9.10;;;4.45;;
37847;SDS011;23688;33.130;-117.188;2023-08-20T04:02:35;12.00;;;4.28;;
37847;SDS011;23688;33.130;-117.188;2023-08-20T04:05:01;10.95;;;5.25;;
37847;SDS011;23688;33.130;-117.188;2023-08-20T04:07:29;8.18;;;4.97;;
37847;SDS011;23688;33.130;-117.188;2023-08-20T04:09:55;10.18;;;4.78;;
37847;SDS011;23688;33.130;-117.188;2023-08-20T04:12:21;11.48;;;4.70;;
37847;SDS011;23688;33.130;-117.188;2023-08-20T04:14:48;6.68;;;4.40;;
37847;SDS011;23688;33.130;-117.188;2023-08-20T04:17:17;12.13;;;4.95;;
37847;SDS011;23688;33.130;-117.188;2023-08-20T04:19:43;5.80;;;4.13;;
37847;SDS011;23688;33.130;-117.188;2023-08-20T04:22:09;8.13;;;4.15;;
37847;SDS011;23688;33.130;-117.188;2023-08-20T04:24:36;8.80;;;4.20;;
37847;SDS011;23688;33.130;-117.188;2023-08-20T04:27:02;6.95;;;3.80;;
37847;SDS011;23688;33.130;-117.188;2023-08-20T04:29:28;11.70;;;4.47;;
37847;SDS011;23688;33.130;-117.188;2023-08-20T04:31:55;7.57;;;3.85;;
37847;SDS011;23688;33.130;-117.188;2023-08-20T04:34:21;12.43;;;4.90;;
37847;SDS011;23688;33.130;-117.188;2023-08-20T04:36:47;6.85;;;4.40;;
37847;SDS011;23688;33.130;-117.188;2023-08-20T04:39:13;8.48;;;4.15;;
37847;SDS011;23688;33.130;-117.188;2023-08-20T04:41:40;11.30;;;4.63;;
37847;SDS011;23688;33.130;-117.188;2023-08-20T04:44:06;7.25;;;4.43;;
37847;SDS011;23688;33.130;-117.188;2023-08-20T04:46:32;8.35;;;4.43;;
37847;SDS011;23688;33.130;-117.188;2023-08-20T04:48:58;10.68;;;4.85;;
37847;SDS011;23688;33.130;-117.188;2023-08-20T04:51:25;10.63;;;4.53;;
37847;SDS011;23688;33.130;-117.188;2023-08-20T04:53:51;9.85;;;4.82;;
37847;SDS011;23688;33.130;-117.188;2023-08-20T04:56:17;13.85;;;4.75;;
37847;SDS011;23688;33.130;-117.188;2023-08-20T04:58:44;14.93;;;4.68;;
37847;SDS011;23688;33.130;-117.188;2023-08-20T05:01:10;7.82;;;4.63;;
37847;SDS011;23688;33.130;-117.188;2023-08-20T05:03:37;10.50;;;4.72;;
37847;SDS011;23688;33.130;-117.188;2023-08-20T05:06:03;11.60;;;5.20;;
37847;SDS011;23688;33.130;-117.188;2023-08-20T05:08:29;10.55;;;5.25;;
37847;SDS011;23688;33.130;-117.188;2023-08-20T05:10:56;14.07;;;5.63;;
37847;SDS011;23688;33.130;-117.188;2023-08-20T05:13:22;8.38;;;4.93;;
37847;SDS011;23688;33.130;-117.188;2023-08-20T05:15:49;11.98;;;4.75;;
37847;SDS011;23688;33.130;-117.188;2023-08-20T05:18:15;12.02;;;5.13;;
37847;SDS011;23688;33.130;-117.188;2023-08-20T05:20:41;12.73;;;4.72;;
37847;SDS011;23688;33.130;-117.188;2023-08-20T05:23:08;14.52;;;5.68;;
37847;SDS011;23688;33.130;-117.188;2023-08-20T05:25:34;8.52;;;4.90;;
37847;SDS011;23688;33.130;-117.188;2023-08-20T05:28:00;11.43;;;4.50;;
37847;SDS011;23688;33.130;-117.188;2023-08-20T05:30:26;10.10;;;5.07;;
37847;SDS011;23688;33.130;-117.188;2023-08-20T05:32:53;7.80;;;4.32;;
37847;SDS011;23688;33.130;-117.188;2023-08-20T05:35:19;10.07;;;4.57;;
37847;SDS011;23688;33.130;-117.188;2023-08-20T05:37:45;6.78;;;4.50;;
37847;SDS011;23688;33.130;-117.188;2023-08-20T05:40:11;12.45;;;5.05;;
37847;SDS011;23688;33.130;-117.188;2023-08-20T05:42:38;10.32;;;5.13;;
37847;SDS011;23688;33.130;-117.188;2023-08-20T05:45:04;11.90;;;5.82;;
37847;SDS011;23688;33.130;-117.188;2023-08-20T05:47:33;7.47;;;4.53;;
37847;SDS011;23688;33.130;-117.188;2023-08-20T05:50:00;21.08;;;5.70;;
37847;SDS011;23688;33.130;-117.188;2023-08-20T05:52:26;14.93;;;5.32;;
37847;SDS011;23688;33.130;-117.188;2023-08-20T05:54:52;10.10;;;5.03;;
37847;SDS011;23688;33.130;-117.188;2023-08-20T05:57:19;14.40;;;5.93;;
37847;SDS011;23688;33.130;-117.188;2023-08-20T05:59:45;16.05;;;5.63;;
37847;SDS011;23688;33.130;-117.188;2023-08-20T06:02:15;11.95;;;5.30;;
37847;SDS011;23688;33.130;-117.188;2023-08-20T06:04:43;11.88;;;5.40;;
37847;SDS011;23688;33.130;-117.188;2023-08-20T06:07:10;12.57;;;4.97;;
37847;SDS011;23688;33.130;-117.188;2023-08-20T06:09:36;9.18;;;4.97;;
37847;SDS011;23688;33.130;-117.188;2023-08-20T06:12:02;10.75;;;5.15;;
37847;SDS011;23688;33.130;-117.188;2023-08-20T06:14:29;13.65;;;5.68;;
37847;SDS011;23688;33.130;-117.188;2023-08-20T06:16:58;11.23;;;5.43;;
37847;SDS011;23688;33.130;-117.188;2023-08-20T06:19:24;13.07;;;5.45;;
37847;SDS011;23688;33.130;-117.188;2023-08-20T06:21:53;12.68;;;5.15;;
37847;SDS011;23688;33.130;-117.188;2023-08-20T06:24:20;11.25;;;5.25;;
37847;SDS011;23688;33.130;-117.188;2023-08-20T06:26:46;15.15;;;5.25;;
37847;SDS011;23688;33.130;-117.188;2023-08-20T06:29:12;13.90;;;5.55;;
37847;SDS011;23688;33.130;-117.188;2023-08-20T06:31:39;11.68;;;4.85;;
37847;SDS011;23688;33.130;-117.188;2023-08-20T06:34:07;8.82;;;4.90;;
37847;SDS011;23688;33.130;-117.188;2023-08-20T06:36:33;10.77;;;4.70;;
37847;SDS011;23688;33.130;-117.188;2023-08-20T06:38:59;8.75;;;4.78;;
37847;SDS011;23688;33.130;-117.188;2023-08-20T06:41:25;9.90;;;5.20;;
37847;SDS011;23688;33.130;-117.188;2023-08-20T06:43:52;11.95;;;5.43;;
37847;SDS011;23688;33.130;-117.188;2023-08-20T06:46:18;11.07;;;5.10;;
37847;SDS011;23688;33.130;-117.188;2023-08-20T06:48:45;14.20;;;5.97;;
37847;SDS011;23688;33.130;-117.188;2023-08-20T06:51:11;9.40;;;5.10;;
37847;SDS011;23688;33.130;-117.188;2023-08-20T06:53:41;12.95;;;6.35;;
37847;SDS011;23688;33.130;-117.188;2023-08-20T06:56:08;12.48;;;5.35;;
37847;SDS011;23688;33.130;-117.188;2023-08-20T06:58:35;10.02;;;5.28;;
37847;SDS011;23688;33.130;-117.188;2023-08-20T07:01:02;11.32;;;5.05;;
37847;SDS011;23688;33.130;-117.188;2023-08-20T07:03:34;10.65;;;5.35;;
37847;SDS011;23688;33.130;-117.188;2023-08-20T07:06:04;9.48;;;4.57;;
37847;SDS011;23688;33.130;-117.188;2023-08-20T07:08:31;11.77;;;4.97;;
37847;SDS011;23688;33.130;-117.188;2023-08-20T07:10:58;9.68;;;4.85;;
37847;SDS011;23688;33.130;-117.188;2023-08-20T07:13:24;15.70;;;5.22;;
37847;SDS011;23688;33.130;-117.188;2023-08-20T07:15:50;6.82;;;4.20;;
37847;SDS011;23688;33.130;-117.188;2023-08-20T07:18:17;11.57;;;5.30;;
37847;SDS011;23688;33.130;-117.188;2023-08-20T07:20:43;7.35;;;3.90;;
37847;SDS011;23688;33.130;-117.188;2023-08-20T07:23:10;14.35;;;4.25;;
37847;SDS011;23688;33.130;-117.188;2023-08-20T07:25:37;10.88;;;4.20;;
37847;SDS011;23688;33.130;-117.188;2023-08-20T07:28:04;7.93;;;4.30;;
37847;SDS011;23688;33.130;-117.188;2023-08-20T07:30:31;11.40;;;4.72;;
37847;SDS011;23688;33.130;-117.188;2023-08-20T07:32:58;7.07;;;4.68;;
37847;SDS011;23688;33.130;-117.188;2023-08-20T07:35:24;8.68;;;4.82;;
37847;SDS011;23688;33.130;-117.188;2023-08-20T07:37:51;6.00;;;4.22;;
37847;SDS011;23688;33.130;-117.188;2023-08-20T07:40:17;7.45;;;4.47;;
37847;SDS011;23688;33.130;-117.188;2023-08-20T07:42:44;8.05;;;4.20;;
37847;SDS011;23688;33.130;-117.188;2023-08-20T07:45:11;7.32;;;4.50;;
37847;SDS011;23688;33.130;-117.188;2023-08-20T07:47:39;9.15;;;5.10;;
37847;SDS011;23688;33.130;-117.188;2023-08-20T07:52:32;10.63;;;4.82;;
37847;SDS011;23688;33.130;-117.188;2023-08-20T07:54:59;7.03;;;4.38;;
37847;SDS011;23688;33.130;-117.188;2023-08-20T07:57:25;11.43;;;4.63;;
37847;SDS011;23688;33.130;-117.188;2023-08-20T07:59:51;14.35;;;4.25;;
37847;SDS011;23688;33.130;-117.188;2023-08-20T08:02:18;7.53;;;4.28;;
37847;SDS011;23688;33.130;-117.188;2023-08-20T08:04:44;8.18;;;3.90;;
37847;SDS011;23688;33.130;-117.188;2023-08-20T08:07:10;6.28;;;4.00;;
37847;SDS011;23688;33.130;-117.188;2023-08-20T08:09:37;12.27;;;5.07;;
37847;SDS011;23688;33.130;-117.188;2023-08-20T08:12:04;9.73;;;4.18;;
37847;SDS011;23688;33.130;-117.188;2023-08-20T08:14:30;7.85;;;4.30;;
37847;SDS011;23688;33.130;-117.188;2023-08-20T08:16:59;11.43;;;4.10;;
37847;SDS011;23688;33.130;-117.188;2023-08-20T08:19:26;13.77;;;5.03;;
37847;SDS011;23688;33.130;-117.188;2023-08-20T08:21:52;11.25;;;4.97;;
37847;SDS011;23688;33.130;-117.188;2023-08-20T08:24:18;14.10;;;4.60;;
37847;SDS011;23688;33.130;-117.188;2023-08-20T08:26:45;8.43;;;4.60;;
37847;SDS011;23688;33.130;-117.188;2023-08-20T08:29:11;8.23;;;4.90;;
37847;SDS011;23688;33.130;-117.188;2023-08-20T08:31:37;9.65;;;4.97;;
37847;SDS011;23688;33.130;-117.188;2023-08-20T08:34:03;11.18;;;5.40;;
37847;SDS011;23688;33.130;-117.188;2023-08-20T08:36:30;12.40;;;4.97;;
37847;SDS011;23688;33.130;-117.188;2023-08-20T08:38:56;11.82;;;5.30;;
37847;SDS011;23688;33.130;-117.188;2023-08-20T08:41:23;8.15;;;4.15;;
37847;SDS011;23688;33.130;-117.188;2023-08-20T08:43:51;9.18;;;4.53;;
37847;SDS011;23688;33.130;-117.188;2023-08-20T08:46:19;14.20;;;4.35;;
37847;SDS011;23688;33.130;-117.188;2023-08-20T08:48:46;6.65;;;4.13;;
37847;SDS011;23688;33.130;-117.188;2023-08-20T08:51:13;9.35;;;3.95;;
37847;SDS011;23688;33.130;-117.188;2023-08-20T08:53:41;10.10;;;3.67;;
37847;SDS011;23688;33.130;-117.188;2023-08-20T08:56:11;7.13;;;3.75;;
37847;SDS011;23688;33.130;-117.188;2023-08-20T08:58:37;8.90;;;3.80;;
37847;SDS011;23688;33.130;-117.188;2023-08-20T09:01:04;7.15;;;3.90;;
37847;SDS011;23688;33.130;-117.188;2023-08-20T09:03:30;10.25;;;3.75;;
37847;SDS011;23688;33.130;-117.188;2023-08-20T09:05:58;6.25;;;3.58;;
37847;SDS011;23688;33.130;-117.188;2023-08-20T09:08:29;9.75;;;4.57;;
37847;SDS011;23688;33.130;-117.188;2023-08-20T09:10:57;9.35;;;3.72;;
37847;SDS011;23688;33.130;-117.188;2023-08-20T09:13:35;10.13;;;3.53;;
37847;SDS011;23688;33.130;-117.188;2023-08-20T09:16:06;7.53;;;3.20;;
37847;SDS011;23688;33.130;-117.188;2023-08-20T09:18:41;9.35;;;3.55;;
37847;SDS011;23688;33.130;-117.188;2023-08-20T09:21:10;8.85;;;3.40;;
37847;SDS011;23688;33.130;-117.188;2023-08-20T09:23:38;7.55;;;3.65;;
37847;SDS011;23688;33.130;-117.188;2023-08-20T09:26:05;8.40;;;3.53;;
37847;SDS011;23688;33.130;-117.188;2023-08-20T09:29:05;8.20;;;3.83;;
37847;SDS011;23688;33.130;-117.188;2023-08-20T09:31:42;7.65;;;3.20;;
37847;SDS011;23688;33.130;-117.188;2023-08-20T09:34:12;10.30;;;4.55;;
37847;SDS011;23688;33.130;-117.188;2023-08-20T09:36:39;8.02;;;4.22;;
37847;SDS011;23688;33.130;-117.188;2023-08-20T09:39:05;9.88;;;3.95;;
37847;SDS011;23688;33.130;-117.188;2023-08-20T09:41:31;9.85;;;4.10;;
37847;SDS011;23688;33.130;-117.188;2023-08-20T09:44:01;9.48;;;3.85;;
37847;SDS011;23688;33.130;-117.188;2023-08-20T09:46:31;10.15;;;4.15;;
37847;SDS011;23688;33.130;-117.188;2023-08-20T09:51:25;10.23;;;4.45;;
37847;SDS011;23688;33.130;-117.188;2023-08-20T09:56:38;13.77;;;5.75;;
37847;SDS011;23688;33.130;-117.188;2023-08-20T09:59:07;11.13;;;4.95;;
37847;SDS011;23688;33.130;-117.188;2023-08-20T10:01:36;10.60;;;4.72;;
37847;SDS011;23688;33.130;-117.188;2023-08-20T10:04:03;10.60;;;4.28;;
37847;SDS011;23688;33.130;-117.188;2023-08-20T10:06:31;9.47;;;4.43;;
37847;SDS011;23688;33.130;-117.188;2023-08-20T10:08:59;14.95;;;5.38;;
37847;SDS011;23688;33.130;-117.188;2023-08-20T10:11:28;19.98;;;7.00;;
37847;SDS011;23688;33.130;-117.188;2023-08-20T10:13:54;10.73;;;5.82;;
37847;SDS011;23688;33.130;-117.188;2023-08-20T10:16:21;17.48;;;4.30;;
37847;SDS011;23688;33.130;-117.188;2023-08-20T10:18:49;10.25;;;4.07;;
37847;SDS011;23688;33.130;-117.188;2023-08-20T10:21:15;10.82;;;3.83;;
37847;SDS011;23688;33.130;-117.188;2023-08-20T10:23:42;7.55;;;3.65;;
37847;SDS011;23688;33.130;-117.188;2023-08-20T10:26:13;9.15;;;3.67;;
37847;SDS011;23688;33.130;-117.188;2023-08-20T10:28:42;9.60;;;3.03;;
37847;SDS011;23688;33.130;-117.188;2023-08-20T10:31:09;14.05;;;3.67;;
37847;SDS011;23688;33.130;-117.188;2023-08-20T10:33:37;6.38;;;3.15;;
37847;SDS011;23688;33.130;-117.188;2023-08-20T10:36:15;6.35;;;3.05;;
37847;SDS011;23688;33.130;-117.188;2023-08-20T10:38:54;5.63;;;3.00;;
37847;SDS011;23688;33.130;-117.188;2023-08-20T10:41:25;8.18;;;3.55;;
37847;SDS011;23688;33.130;-117.188;2023-08-20T10:43:52;6.30;;;2.90;;
37847;SDS011;23688;33.130;-117.188;2023-08-20T10:46:23;5.63;;;2.40;;
37847;SDS011;23688;33.130;-117.188;2023-08-20T10:48:58;5.32;;;2.13;;
37847;SDS011;23688;33.130;-117.188;2023-08-20T10:51:27;3.92;;;2.42;;
37847;SDS011;23688;33.130;-117.188;2023-08-20T11:01:43;6.72;;;1.88;;
37847;SDS011;23688;33.130;-117.188;2023-08-20T11:04:11;6.63;;;2.17;;
37847;SDS011;23688;33.130;-117.188;2023-08-20T11:06:38;9.00;;;2.22;;
37847;SDS011;23688;33.130;-117.188;2023-08-20T11:11:32;5.82;;;2.50;;
37847;SDS011;23688;33.130;-117.188;2023-08-20T11:14:11;3.90;;;2.45;;
37847;SDS011;23688;33.130;-117.188;2023-08-20T11:16:42;7.53;;;2.22;;
37847;SDS011;23688;33.130;-117.188;2023-08-20T11:19:09;7.37;;;2.30;;
37847;SDS011;23688;33.130;-117.188;2023-08-20T11:21:37;5.65;;;2.15;;
37847;SDS011;23688;33.130;-117.188;2023-08-20T11:24:05;5.45;;;1.75;;
37847;SDS011;23688;33.130;-117.188;2023-08-20T11:26:32;2.38;;;1.50;;
37847;SDS011;23688;33.130;-117.188;2023-08-20T11:29:05;2.03;;;1.38;;
37847;SDS011;23688;33.130;-117.188;2023-08-20T11:31:32;3.67;;;1.80;;
37847;SDS011;23688;33.130;-117.188;2023-08-20T11:33:59;3.55;;;1.85;;
37847;SDS011;23688;33.130;-117.188;2023-08-20T11:36:27;3.35;;;1.67;;
37847;SDS011;23688;33.130;-117.188;2023-08-20T11:38:53;4.43;;;1.80;;
37847;SDS011;23688;33.130;-117.188;2023-08-20T11:41:20;2.53;;;1.55;;
37847;SDS011;23688;33.130;-117.188;2023-08-20T11:43:47;5.30;;;1.63;;
37847;SDS011;23688;33.130;-117.188;2023-08-20T11:46:15;3.78;;;2.10;;
37847;SDS011;23688;33.130;-117.188;2023-08-20T11:51:30;10.73;;;3.20;;
37847;SDS011;23688;33.130;-117.188;2023-08-20T11:54:07;4.13;;;1.77;;
37847;SDS011;23688;33.130;-117.188;2023-08-20T11:56:35;5.78;;;2.17;;
37847;SDS011;23688;33.130;-117.188;2023-08-20T11:59:08;7.22;;;2.35;;
37847;SDS011;23688;33.130;-117.188;2023-08-20T12:01:37;4.20;;;2.22;;
37847;SDS011;23688;33.130;-117.188;2023-08-20T12:04:04;3.25;;;1.52;;
37847;SDS011;23688;33.130;-117.188;2023-08-20T12:06:31;7.15;;;1.83;;
37847;SDS011;23688;33.130;-117.188;2023-08-20T12:08:57;5.07;;;2.30;;
37847;SDS011;23688;33.130;-117.188;2023-08-20T12:11:27;7.05;;;2.30;;
37847;SDS011;23688;33.130;-117.188;2023-08-20T12:13:54;4.55;;;1.55;;
37847;SDS011;23688;33.130;-117.188;2023-08-20T12:16:24;9.55;;;2.17;;
37847;SDS011;23688;33.130;-117.188;2023-08-20T12:18:50;4.03;;;2.10;;
37847;SDS011;23688;33.130;-117.188;2023-08-20T12:21:18;5.47;;;1.67;;
37847;SDS011;23688;33.130;-117.188;2023-08-20T12:23:44;5.07;;;1.98;;
37847;SDS011;23688;33.130;-117.188;2023-08-20T12:26:10;3.38;;;2.10;;
37847;SDS011;23688;33.130;-117.188;2023-08-20T12:28:36;8.32;;;2.03;;
37847;SDS011;23688;33.130;-117.188;2023-08-20T12:31:03;4.43;;;2.00;;
37847;SDS011;23688;33.130;-117.188;2023-08-20T12:33:29;7.45;;;2.20;;
37847;SDS011;23688;33.130;-117.188;2023-08-20T12:35:55;5.30;;;2.25;;
37847;SDS011;23688;33.130;-117.188;2023-08-20T12:38:22;3.05;;;2.60;;
37847;SDS011;23688;33.130;-117.188;2023-08-20T12:40:48;7.55;;;2.88;;
37847;SDS011;23688;33.130;-117.188;2023-08-20T12:43:14;5.03;;;2.22;;
37847;SDS011;23688;33.130;-117.188;2023-08-20T12:45:41;5.65;;;2.53;;
37847;SDS011;23688;33.130;-117.188;2023-08-20T12:48:07;4.78;;;2.30;;
37847;SDS011;23688;33.130;-117.188;2023-08-20T12:50:34;4.75;;;2.30;;
37847;SDS011;23688;33.130;-117.188;2023-08-20T12:53:03;7.55;;;2.55;;
37847;SDS011;23688;33.130;-117.188;2023-08-20T12:55:29;9.50;;;3.28;;
37847;SDS011;23688;33.130;-117.188;2023-08-20T12:57:56;4.88;;;1.85;;
37847;SDS011;23688;33.130;-117.188;2023-08-20T13:00:23;3.63;;;1.77;;
37847;SDS011;23688;33.130;-117.188;2023-08-20T13:02:51;8.93;;;2.10;;
37847;SDS011;23688;33.130;-117.188;2023-08-20T13:05:18;10.27;;;2.83;;
37847;SDS011;23688;33.130;-117.188;2023-08-20T13:07:45;6.10;;;2.60;;
37847;SDS011;23688;33.130;-117.188;2023-08-20T13:10:12;7.68;;;2.67;;
37847;SDS011;23688;33.130;-117.188;2023-08-20T13:12:41;6.25;;;2.25;;
37847;SDS011;23688;33.130;-117.188;2023-08-20T13:15:15;7.15;;;2.83;;
37847;SDS011;23688;33.130;-117.188;2023-08-20T13:17:46;5.70;;;2.30;;
37847;SDS011;23688;33.130;-117.188;2023-08-20T13:20:14;8.18;;;2.25;;
37847;SDS011;23688;33.130;-117.188;2023-08-20T13:22:47;5.72;;;2.65;;
37847;SDS011;23688;33.130;-117.188;2023-08-20T13:25:14;9.90;;;2.70;;
37847;SDS011;23688;33.130;-117.188;2023-08-20T13:27:41;8.40;;;3.03;;
37847;SDS011;23688;33.130;-117.188;2023-08-20T13:30:07;8.13;;;2.40;;
37847;SDS011;23688;33.130;-117.188;2023-08-20T13:32:35;5.95;;;2.83;;
37847;SDS011;23688;33.130;-117.188;2023-08-20T13:35:01;6.78;;;2.72;;
37847;SDS011;23688;33.130;-117.188;2023-08-20T13:37:31;8.88;;;2.53;;
37847;SDS011;23688;33.130;-117.188;2023-08-20T13:39:58;9.95;;;3.17;;
37847;SDS011;23688;33.130;-117.188;2023-08-20T13:42:24;7.57;;;2.60;;
37847;SDS011;23688;33.130;-117.188;2023-08-20T13:44:51;9.45;;;2.60;;
37847;SDS011;23688;33.130;-117.188;2023-08-20T13:47:17;6.35;;;2.55;;
37847;SDS011;23688;33.130;-117.188;2023-08-20T13:49:43;12.50;;;3.20;;
37847;SDS011;23688;33.130;-117.188;2023-08-20T13:52:10;6.35;;;2.90;;
37847;SDS011;23688;33.130;-117.188;2023-08-20T13:54:37;9.57;;;3.40;;
37847;SDS011;23688;33.130;-117.188;2023-08-20T13:57:03;9.93;;;3.47;;
37847;SDS011;23688;33.130;-117.188;2023-08-20T13:59:30;5.82;;;3.20;;
37847;SDS011;23688;33.130;-117.188;2023-08-20T14:01:57;6.05;;;2.85;;
37847;SDS011;23688;33.130;-117.188;2023-08-20T14:04:24;8.93;;;3.10;;
37847;SDS011;23688;33.130;-117.188;2023-08-20T14:06:50;11.00;;;3.15;;
37847;SDS011;23688;33.130;-117.188;2023-08-20T14:09:17;6.20;;;2.92;;
37847;SDS011;23688;33.130;-117.188;2023-08-20T14:11:44;11.20;;;3.35;;
37847;SDS011;23688;33.130;-117.188;2023-08-20T14:14:11;7.93;;;4.07;;
37847;SDS011;23688;33.130;-117.188;2023-08-20T14:16:38;9.73;;;3.50;;
37847;SDS011;23688;33.130;-117.188;2023-08-20T14:19:04;6.38;;;2.88;;
37847;SDS011;23688;33.130;-117.188;2023-08-20T14:21:31;6.80;;;2.92;;
37847;SDS011;23688;33.130;-117.188;2023-08-20T14:23:57;4.90;;;2.78;;
37847;SDS011;23688;33.130;-117.188;2023-08-20T14:26:23;6.13;;;3.03;;
37847;SDS011;23688;33.130;-117.188;2023-08-20T14:28:49;5.43;;;3.10;;
37847;SDS011;23688;33.130;-117.188;2023-08-20T14:31:16;7.18;;;3.70;;
37847;SDS011;23688;33.130;-117.188;2023-08-20T14:33:44;11.65;;;3.88;;